Time;durP1;ratioP1;P1;durP2;ratioP2;P2;SDS_P1;SDS_P2;PMS_P1;PMS_P2;Temp;Humidity;BMP_temperature;BMP_pressure;BME280_temperature;BME280_humidity;BME280_pressure;Samples;Min_cycle;Max_cycle;Signal;HPM_P1;HPM_P2
2022/12/13 00:02:36;;;;;;;14.00;9.97;;;-1.30;37.60;;;;;;10307175;28;20249;-70
2022/12/13 00:07:40;;;;;;;14.20;9.83;;;-1.30;37.60;;;;;;10303266;28;20230;-71
2022/12/13 00:12:43;;;;;;;14.87;10.33;;;-1.40;37.50;;;;;;10305388;28;21020;-68
2022/12/13 00:17:48;;;;;;;12.73;8.87;;;-1.40;37.50;;;;;;10308559;28;20227;-68
2022/12/13 00:22:52;;;;;;;13.73;9.37;;;-1.40;37.30;;;;;;10305772;28;20878;-68
2022/12/13 00:27:55;;;;;;;19.77;11.77;;;-1.40;36.90;;;;;;10309187;28;20228;-69
2022/12/13 00:32:59;;;;;;;15.97;10.00;;;-1.60;37.30;;;;;;10305976;28;20293;-69
2022/12/13 00:38:03;;;;;;;16.27;10.60;;;-1.70;37.30;;;;;;10311084;28;20230;-69
2022/12/13 00:43:06;;;;;;;22.13;11.23;;;-1.70;37.30;;;;;;10307407;28;20231;-69
2022/12/13 00:48:10;;;;;;;17.70;10.53;;;-1.80;37.20;;;;;;10304591;28;20779;-69
2022/12/13 00:53:13;;;;;;;15.90;10.00;;;-1.80;37.20;;;;;;10308418;28;20761;-69
2022/12/13 00:58:16;;;;;;;14.40;9.60;;;-1.80;37.20;;;;;;10305550;28;20234;-69
2022/12/13 01:03:24;;;;;;;12.77;9.23;;;-1.90;37.10;;;;;;10310467;28;20227;-69
2022/12/13 01:08:27;;;;;;;13.23;8.70;;;-1.90;37.10;;;;;;10308113;28;20281;-68
2022/12/13 01:13:31;;;;;;;13.30;8.77;;;-1.90;37.10;;;;;;10302784;28;20233;-69
2022/12/13 01:18:36;;;;;;;13.23;9.00;;;-2.00;37.00;;;;;;10304825;28;20219;-69
2022/12/13 01:23:40;;;;;;;13.40;8.50;;;-2.00;37.00;;;;;;10306589;28;20223;-69
2022/12/13 01:28:43;;;;;;;13.43;9.13;;;-2.00;37.00;;;;;;10298621;28;20270;-69
2022/12/13 01:33:48;;;;;;;13.97;8.70;;;-2.10;36.90;;;;;;10310964;28;20231;-69
2022/12/13 01:38:51;;;;;;;11.03;8.13;;;-2.10;36.80;;;;;;10304303;28;20229;-69
2022/12/13 01:44:02;;;;;;;11.90;8.20;;;-2.20;36.80;;;;;;10308647;28;20310;-69
2022/12/13 01:49:09;;;;;;;11.40;8.07;;;-2.20;36.80;;;;;;10306193;28;20298;-69
2022/12/13 01:54:29;;;;;;;12.33;7.87;;;-2.30;36.80;;;;;;10309280;28;20223;-69
2022/12/13 01:59:39;;;;;;;12.10;8.43;;;-2.30;36.70;;;;;;10307867;28;20313;-69
2022/12/13 02:04:49;;;;;;;11.50;8.10;;;-2.30;36.80;;;;;;10304638;28;20227;-68
2022/12/13 02:09:55;;;;;;;10.87;7.20;;;-2.40;36.70;;;;;;10301062;28;20605;-68
2022/12/13 02:15:00;;;;;;;11.23;7.67;;;-2.50;36.60;;;;;;10307114;28;20650;-68
2022/12/13 02:20:38;;;;;;;10.57;7.57;;;-2.50;36.80;;;;;;10303199;28;20223;-69
2022/12/13 02:25:59;;;;;;;9.70;6.50;;;-2.50;36.60;;;;;;10298005;28;20771;-70
2022/12/13 02:31:08;;;;;;;11.70;7.43;;;-2.60;36.50;;;;;;10303538;28;20235;-69
2022/12/13 02:36:18;;;;;;;14.17;7.50;;;-2.60;36.50;;;;;;10308149;28;20231;-68
2022/12/13 02:41:30;;;;;;;10.13;6.60;;;-2.60;36.60;;;;;;10300436;28;20361;-69
2022/12/13 02:46:40;;;;;;;10.30;7.17;;;-2.80;36.30;;;;;;10307316;28;20233;-68
2022/12/13 02:51:44;;;;;;;11.33;7.03;;;-2.80;36.40;;;;;;10298826;28;20223;-69
2022/12/13 02:56:54;;;;;;;11.47;6.77;;;-2.80;36.40;;;;;;10306756;28;20219;-68
2022/12/13 03:02:14;;;;;;;11.33;6.93;;;-2.90;36.30;;;;;;10301001;28;20242;-69
2022/12/13 03:07:42;;;;;;;8.53;6.40;;;-2.90;36.30;;;;;;10301070;28;20223;-68
2022/12/13 03:18:19;;;;;;;8.50;5.83;;;-2.90;36.30;;;;;;10307621;28;20758;-69
2022/12/13 03:23:22;;;;;;;12.17;6.80;;;-2.90;36.30;;;;;;10297441;28;20744;-69
2022/12/13 03:28:26;;;;;;;12.23;7.40;;;-2.90;36.40;;;;;;10300402;28;20607;-69
2022/12/13 03:33:30;;;;;;;9.43;7.00;;;-2.90;36.30;;;;;;10298106;28;21014;-68
2022/12/13 03:38:33;;;;;;;9.27;6.47;;;-2.90;36.30;;;;;;10309338;28;20230;-68
2022/12/13 03:43:37;;;;;;;13.30;6.60;;;-3.00;36.20;;;;;;10309362;28;20226;-68
2022/12/13 03:48:42;;;;;;;10.60;6.70;;;-3.00;36.30;;;;;;10310915;28;20643;-68
2022/12/13 03:53:45;;;;;;;10.33;6.33;;;-3.10;36.20;;;;;;10307882;28;20282;-68
2022/12/13 03:58:48;;;;;;;11.60;6.83;;;-3.10;36.40;;;;;;10302897;28;20559;-70
2022/12/13 04:03:53;;;;;;;8.80;6.70;;;-3.10;36.40;;;;;;10308357;28;20288;-70
2022/12/13 04:08:56;;;;;;;10.17;6.20;;;-3.10;36.10;;;;;;10307725;28;20223;-70
2022/12/13 04:13:59;;;;;;;10.87;6.83;;;-3.00;36.40;;;;;;10303969;28;20262;-68
2022/12/13 04:19:04;;;;;;;9.93;6.53;;;-3.20;36.20;;;;;;10304751;28;20220;-68
2022/12/13 04:24:07;;;;;;;10.93;7.20;;;-3.20;36.30;;;;;;10307121;28;20231;-68
2022/12/13 04:29:11;;;;;;;8.63;5.80;;;-3.20;36.20;;;;;;10301974;28;20251;-68
2022/12/13 04:34:16;;;;;;;8.67;6.13;;;-3.20;36.20;;;;;;10303301;28;20230;-67
2022/12/13 04:39:19;;;;;;;10.60;6.80;;;-3.30;36.10;;;;;;10308378;28;20223;-70
2022/12/13 04:44:24;;;;;;;9.43;6.73;;;-3.30;36.30;;;;;;10314330;28;20355;-68
2022/12/13 04:49:33;;;;;;;10.73;6.50;;;-3.30;36.30;;;;;;10312025;28;20310;-69
2022/12/13 04:54:37;;;;;;;11.60;6.33;;;-3.40;35.90;;;;;;10316762;28;20235;-69
2022/12/13 04:59:40;;;;;;;9.97;6.67;;;-3.40;36.40;;;;;;10314236;28;20226;-69
2022/12/13 05:04:46;;;;;;;10.17;6.63;;;-3.50;36.20;;;;;;10319090;28;20230;-69
2022/12/13 05:09:55;;;;;;;11.47;5.93;;;-3.50;35.80;;;;;;10308411;28;20254;-68
2022/12/13 05:14:59;;;;;;;9.63;5.57;;;-3.60;36.10;;;;;;10309690;28;20698;-68
2022/12/13 05:20:04;;;;;;;8.13;5.77;;;-3.60;36.20;;;;;;10312138;28;20246;-69
2022/12/13 05:25:08;;;;;;;8.20;5.70;;;-3.70;36.10;;;;;;10302167;28;20301;-69
2022/12/13 05:30:12;;;;;;;9.50;6.17;;;-3.70;36.40;;;;;;10303329;28;20647;-68
2022/12/13 05:35:17;;;;;;;8.10;5.87;;;-3.70;36.50;;;;;;10307137;28;20227;-72
2022/12/13 05:40:27;;;;;;;7.60;5.87;;;-3.80;36.20;;;;;;10307270;28;20296;-70
2022/12/13 05:45:31;;;;;;;12.63;7.53;;;-3.80;36.70;;;;;;10302929;28;20591;-69
2022/12/13 05:50:37;;;;;;;23.13;11.43;;;-3.80;36.80;;;;;;10304620;28;20273;-67
2022/12/13 05:55:40;;;;;;;24.73;12.33;;;-3.70;36.80;;;;;;10304159;28;20231;-69
2022/12/13 06:00:43;;;;;;;14.47;8.57;;;-3.70;36.90;;;;;;10309046;28;20226;-69
2022/12/13 06:05:47;;;;;;;11.50;6.93;;;-3.70;36.80;;;;;;10309393;28;20235;-69
2022/12/13 06:10:54;;;;;;;10.37;6.50;;;-3.70;36.40;;;;;;10306322;28;20223;-70
2022/12/13 06:16:13;;;;;;;8.90;6.13;;;-3.80;36.20;;;;;;10310099;28;20227;-70
2022/12/13 06:21:27;;;;;;;11.80;7.03;;;-3.80;36.50;;;;;;10312308;28;20605;-71
2022/12/13 06:26:48;;;;;;;13.67;7.00;;;-3.80;36.90;;;;;;10302233;28;20941;-68
2022/12/13 06:31:56;;;;;;;14.00;7.43;;;-3.80;37.60;;;;;;10303752;28;20223;-68
2022/12/13 06:37:08;;;;;;;10.90;6.67;;;-3.70;37.70;;;;;;10306908;28;20223;-71
2022/12/13 06:42:16;;;;;;;12.03;6.40;;;-3.70;37.60;;;;;;10306621;28;20235;-68
2022/12/13 06:47:25;;;;;;;11.67;6.27;;;-3.70;37.30;;;;;;10306577;28;20755;-68
2022/12/13 06:52:36;;;;;;;11.53;6.53;;;-3.70;37.40;;;;;;10308038;28;20230;-72
2022/12/13 06:57:39;;;;;;;10.90;6.80;;;-3.70;37.40;;;;;;10296271;28;20223;-72
2022/12/13 07:02:43;;;;;;;8.73;5.90;;;-3.70;37.10;;;;;;10299260;28;20896;-71
2022/12/13 07:07:47;;;;;;;10.53;6.00;;;-3.70;36.70;;;;;;10300769;28;20278;-72
2022/12/13 07:12:51;;;;;;;11.13;5.90;;;-3.80;36.70;;;;;;10302612;28;20227;-72
2022/12/13 07:17:54;;;;;;;8.47;5.53;;;-3.80;37.00;;;;;;10302869;28;20219;-72
2022/12/13 07:22:58;;;;;;;6.67;4.87;;;-3.80;37.20;;;;;;10309307;28;20227;-72
2022/12/13 07:28:04;;;;;;;9.27;5.63;;;-3.80;37.30;;;;;;10308943;28;20231;-72
2022/12/13 07:33:07;;;;;;;10.07;5.93;;;-3.80;37.30;;;;;;10309212;28;20607;-69
2022/12/13 07:38:12;;;;;;;13.33;6.80;;;-3.80;37.30;;;;;;10303544;28;20235;-71
2022/12/13 07:43:15;;;;;;;10.20;6.57;;;-3.70;37.40;;;;;;10312753;28;20251;-70
2022/12/13 07:48:19;;;;;;;9.93;6.33;;;-3.70;37.60;;;;;;10309300;28;20272;-71
2022/12/13 07:53:24;;;;;;;11.93;6.83;;;-3.70;37.50;;;;;;10302654;28;20235;-71
2022/12/13 07:58:28;;;;;;;11.17;6.77;;;-3.60;37.50;;;;;;10304398;28;20247;-71
2022/12/13 08:03:32;;;;;;;9.83;6.90;;;-3.60;37.50;;;;;;10311948;28;20251;-71
2022/12/13 08:08:37;;;;;;;10.63;7.13;;;-3.60;37.70;;;;;;10305962;28;20638;-71
2022/12/13 08:13:40;;;;;;;11.40;7.10;;;-3.50;37.70;;;;;;10306781;28;20591;-72
2022/12/13 08:18:46;;;;;;;9.13;6.33;;;-3.50;37.70;;;;;;10303333;28;20231;-72
2022/12/13 08:23:50;;;;;;;10.70;6.53;;;-3.40;37.80;;;;;;10307279;28;20285;-72
2022/12/13 08:28:53;;;;;;;11.13;6.87;;;-3.30;38.00;;;;;;10312671;28;20223;-73
2022/12/13 08:33:56;;;;;;;12.23;7.07;;;-3.20;38.00;;;;;;10306791;28;20223;-73
2022/12/13 08:39:01;;;;;;;11.87;7.37;;;-3.10;38.00;;;;;;10310603;28;20227;-73
2022/12/13 08:44:05;;;;;;;14.03;8.27;;;-3.00;38.10;;;;;;10302619;28;20280;-72
2022/12/13 08:49:08;;;;;;;13.67;8.13;;;-2.90;38.20;;;;;;10305475;28;20235;-72
2022/12/13 08:54:13;;;;;;;12.30;7.47;;;-2.80;38.50;;;;;;10309849;28;20233;-73
2022/12/13 08:59:33;;;;;;;13.27;8.30;;;-2.70;38.70;;;;;;10306945;28;20335;-73
2022/12/13 09:04:36;;;;;;;13.50;8.27;;;-2.60;38.80;;;;;;10304717;28;20266;-73
2022/12/13 09:09:41;;;;;;;14.63;9.07;;;-2.50;38.70;;;;;;10309775;28;20219;-73
2022/12/13 09:14:44;;;;;;;11.73;8.73;;;-2.40;38.70;;;;;;10301321;28;20223;-73
2022/12/13 09:19:48;;;;;;;12.37;8.70;;;-2.30;38.70;;;;;;10301803;28;20223;-73
2022/12/13 09:24:52;;;;;;;14.97;9.20;;;-2.20;38.90;;;;;;10303490;28;20230;-73
2022/12/13 09:30:06;;;;;;;12.83;8.83;;;-2.10;38.90;;;;;;10305903;28;20230;-69
2022/12/13 09:35:10;;;;;;;12.87;8.63;;;-1.90;39.20;;;;;;10304470;28;20232;-69
2022/12/13 09:40:20;;;;;;;15.10;8.87;;;-1.80;39.50;;;;;;10305333;28;20227;-69
2022/12/13 09:45:29;;;;;;;13.57;9.33;;;-1.70;39.50;;;;;;10304405;28;20273;-70
2022/12/13 09:50:36;;;;;;;14.13;8.90;;;-1.50;39.60;;;;;;10304675;28;20221;-69
2022/12/13 09:55:49;;;;;;;13.13;9.53;;;-1.30;39.90;;;;;;10305304;28;21223;-69
2022/12/13 10:00:55;;;;;;;11.97;8.37;;;-1.10;39.90;;;;;;10301198;28;20227;-69
2022/12/13 10:06:00;;;;;;;11.47;9.20;;;-0.90;40.00;;;;;;10305374;28;20233;-70
2022/12/13 10:11:05;;;;;;;12.70;8.90;;;-0.70;40.10;;;;;;10302422;28;20223;-69
2022/12/13 10:16:13;;;;;;;11.50;8.57;;;-0.50;40.00;;;;;;10305718;28;20239;-69
2022/12/13 10:21:29;;;;;;;11.67;8.50;;;-0.40;39.90;;;;;;10304426;28;20234;-69
2022/12/13 10:26:38;;;;;;;12.93;9.23;;;-0.20;39.90;;;;;;10305170;28;20223;-69
2022/12/13 10:31:42;;;;;;;11.60;8.37;;;-0.10;39.70;;;;;;10298339;28;20227;-69
2022/12/13 10:36:46;;;;;;;11.57;8.70;;;0.00;39.90;;;;;;10303139;28;20219;-69
2022/12/13 10:42:02;;;;;;;9.83;7.37;;;0.10;39.90;;;;;;10301238;28;20227;-69
2022/12/13 10:47:16;;;;;;;10.40;7.50;;;0.30;39.70;;;;;;10301976;28;20219;-69
2022/12/13 10:52:24;;;;;;;9.60;7.27;;;0.40;39.80;;;;;;10312287;28;20591;-69
2022/12/13 10:57:35;;;;;;;12.37;8.13;;;0.50;39.80;;;;;;10313677;28;20695;-69
2022/12/13 11:02:40;;;;;;;9.93;7.43;;;0.60;39.80;;;;;;10299894;28;20234;-69
2022/12/13 11:07:43;;;;;;;10.87;7.40;;;0.80;40.00;;;;;;10306156;28;20231;-69
2022/12/13 11:12:49;;;;;;;10.67;7.50;;;0.80;40.00;;;;;;10308474;28;20793;-69
2022/12/13 11:17:55;;;;;;;10.10;7.73;;;0.90;39.70;;;;;;10312351;28;20228;-69
2022/12/13 11:23:05;;;;;;;9.00;7.10;;;1.00;39.60;;;;;;10310241;28;20234;-68
2022/12/13 11:28:26;;;;;;;9.30;7.87;;;1.10;39.50;;;;;;10312272;28;20282;-69
2022/12/13 11:33:40;;;;;;;10.43;7.20;;;1.20;39.60;;;;;;10311894;28;20237;-70
2022/12/13 11:39:03;;;;;;;8.00;6.70;;;1.30;40.60;;;;;;10306307;28;20282;-70
2022/12/13 11:44:13;;;;;;;9.03;7.47;;;1.50;39.90;;;;;;10301867;28;20222;-70
2022/12/13 11:49:18;;;;;;;8.80;7.47;;;1.60;39.50;;;;;;10307469;28;20227;-70
2022/12/13 11:54:28;;;;;;;8.47;6.93;;;1.60;39.50;;;;;;10304398;28;20309;-68
2022/12/13 11:59:39;;;;;;;9.83;7.43;;;1.60;39.30;;;;;;10305481;28;20234;-68
2022/12/13 12:04:47;;;;;;;9.70;6.87;;;1.60;39.30;;;;;;10306227;28;20232;-68
2022/12/13 12:09:56;;;;;;;8.10;6.90;;;1.60;39.20;;;;;;10306385;28;20278;-68
2022/12/13 12:15:06;;;;;;;9.67;7.63;;;1.60;39.00;;;;;;10306807;28;20396;-67
2022/12/13 12:20:23;;;;;;;9.53;7.30;;;1.60;38.80;;;;;;10306470;28;20219;-67
2022/12/13 12:25:39;;;;;;;8.37;7.37;;;1.60;38.70;;;;;;10309445;28;20240;-70
2022/12/13 12:30:53;;;;;;;8.13;6.70;;;1.60;38.70;;;;;;10300134;28;20712;-71
2022/12/13 12:36:17;;;;;;;9.10;6.67;;;1.50;38.70;;;;;;10301205;28;20742;-70
2022/12/13 12:41:29;;;;;;;8.67;6.60;;;1.40;39.10;;;;;;10309266;28;20277;-70
2022/12/13 12:46:50;;;;;;;9.97;7.40;;;1.50;41.90;;;;;;10305661;28;20642;-71
2022/12/13 12:52:20;;;;;;;8.53;6.77;;;1.70;40.00;;;;;;10305721;28;20770;-70
2022/12/13 12:57:30;;;;;;;10.30;7.77;;;1.70;39.50;;;;;;10304003;28;20646;-70
2022/12/13 13:02:40;;;;;;;9.73;7.73;;;1.70;39.20;;;;;;10300001;28;20238;-67
2022/12/13 13:07:47;;;;;;;7.97;6.17;;;1.70;38.50;;;;;;10300504;28;20222;-68
2022/12/13 13:12:54;;;;;;;9.40;7.30;;;1.70;38.90;;;;;;10301539;28;20250;-67
2022/12/13 13:18:44;;;;;;;8.67;6.40;;;1.70;39.10;;;;;;10302276;28;20230;-67
2022/12/13 13:23:47;;;;;;;8.97;7.03;;;1.70;38.60;;;;;;10306496;28;20231;-71
2022/12/13 13:28:51;;;;;;;9.40;7.00;;;1.70;39.00;;;;;;10304711;28;20723;-72
2022/12/13 13:33:55;;;;;;;8.30;5.60;;;1.70;39.00;;;;;;10308739;28;20226;-71
2022/12/13 13:38:58;;;;;;;10.30;6.60;;;1.60;38.80;;;;;;10303353;28;20231;-67
2022/12/13 13:44:52;;;;;;;8.73;6.63;;;1.70;39.00;;;;;;10304300;28;20262;-67
2022/12/13 13:50:09;;;;;;;10.80;7.17;;;1.70;38.10;;;;;;10306652;28;20227;-72
2022/12/13 13:55:45;;;;;;;10.67;7.27;;;1.60;38.40;;;;;;10303545;28;20247;-70
2022/12/13 14:01:23;;;;;;;8.27;6.80;;;1.60;38.30;;;;;;10297359;28;20224;-67
2022/12/13 14:07:04;;;;;;;6.97;5.83;;;1.60;38.30;;;;;;10303495;28;20306;-68
2022/12/13 14:12:37;;;;;;;9.07;6.97;;;1.50;38.20;;;;;;10299987;28;20235;-67
2022/12/13 14:18:25;;;;;;;6.87;5.77;;;1.60;38.40;;;;;;10301618;28;20601;-67
2022/12/13 14:23:41;;;;;;;6.90;5.93;;;1.60;38.30;;;;;;10305568;28;20235;-68
2022/12/13 14:28:48;;;;;;;7.57;6.10;;;1.60;38.40;;;;;;10305504;28;20221;-68
2022/12/13 14:33:53;;;;;;;7.80;5.77;;;1.60;38.50;;;;;;10307904;28;20227;-68
2022/12/13 14:39:02;;;;;;;7.50;6.30;;;1.60;38.60;;;;;;10306335;28;20220;-68
2022/12/13 14:44:14;;;;;;;8.43;6.97;;;1.60;38.20;;;;;;10300796;28;20718;-70
2022/12/13 14:49:18;;;;;;;8.80;6.53;;;1.60;38.00;;;;;;10299606;28;20231;-70
2022/12/13 14:54:23;;;;;;;9.40;7.73;;;1.50;38.40;;;;;;10301780;28;20236;-72
2022/12/13 14:59:29;;;;;;;9.17;7.70;;;1.50;38.50;;;;;;10307239;28;20227;-69
2022/12/13 15:04:34;;;;;;;7.83;6.33;;;1.60;40.00;;;;;;10300051;28;20656;-69
2022/12/13 15:09:42;;;;;;;6.57;5.87;;;1.60;40.00;;;;;;10302673;28;20741;-69
2022/12/13 15:14:49;;;;;;;6.87;6.10;;;1.70;39.70;;;;;;10306452;28;20233;-69
2022/12/13 15:19:52;;;;;;;7.40;5.63;;;1.70;39.00;;;;;;10303969;28;20223;-69
2022/12/13 15:24:57;;;;;;;6.00;5.20;;;1.70;38.80;;;;;;10303271;28;20645;-69
2022/12/13 15:30:01;;;;;;;6.50;5.60;;;1.70;38.40;;;;;;10304033;28;20607;-69
2022/12/13 15:35:16;;;;;;;7.07;5.77;;;1.60;38.40;;;;;;10301462;28;20235;-67
2022/12/13 15:40:21;;;;;;;7.80;5.63;;;1.60;37.80;;;;;;10313130;28;20226;-67
2022/12/13 15:45:26;;;;;;;6.83;5.47;;;1.60;38.30;;;;;;10312057;28;20246;-71
2022/12/13 15:50:40;;;;;;;8.63;6.50;;;1.50;38.30;;;;;;10310633;28;20234;-71
2022/12/13 15:55:52;;;;;;;10.10;7.37;;;1.50;39.00;;;;;;10310957;28;20642;-67
2022/12/13 16:00:57;;;;;;;6.83;5.80;;;1.40;38.30;;;;;;10309084;28;20227;-67
2022/12/13 16:06:01;;;;;;;5.97;5.30;;;1.40;38.40;;;;;;10310599;28;20234;-67
2022/12/13 16:11:07;;;;;;;6.63;4.90;;;1.30;38.30;;;;;;10312279;28;20226;-68
2022/12/13 16:16:27;;;;;;;5.67;5.10;;;1.40;38.30;;;;;;10309241;28;20234;-69
2022/12/13 16:21:30;;;;;;;6.23;5.63;;;1.40;38.00;;;;;;10306492;28;20735;-69
2022/12/13 16:26:35;;;;;;;5.87;5.33;;;1.30;38.50;;;;;;10309982;28;20239;-69
2022/12/13 16:31:38;;;;;;;6.07;5.47;;;1.20;38.40;;;;;;10307567;28;20222;-69
2022/12/13 16:36:41;;;;;;;6.07;5.07;;;1.20;38.70;;;;;;10313521;28;20576;-69
2022/12/13 16:41:51;;;;;;;6.77;5.50;;;1.20;38.70;;;;;;10311630;28;20228;-68
2022/12/13 16:46:54;;;;;;;6.73;5.27;;;1.20;38.60;;;;;;10303131;28;20234;-70
2022/12/13 16:52:20;;;;;;;6.20;5.30;;;1.20;38.70;;;;;;10303699;28;20231;-69
2022/12/13 16:57:25;;;;;;;6.20;5.47;;;1.30;38.80;;;;;;10308927;28;20227;-70
2022/12/13 17:02:28;;;;;;;6.40;5.13;;;1.30;38.60;;;;;;10302384;28;20258;-70
2022/12/13 17:07:32;;;;;;;6.00;5.40;;;1.30;38.70;;;;;;10303579;28;20729;-70
2022/12/13 17:12:36;;;;;;;6.87;5.57;;;1.30;38.70;;;;;;10308383;28;20230;-70
2022/12/13 17:17:41;;;;;;;6.40;5.60;;;1.30;38.60;;;;;;10303869;28;20673;-70
2022/12/13 17:22:45;;;;;;;6.33;5.47;;;1.30;38.60;;;;;;10305941;28;20227;-70
2022/12/13 17:27:49;;;;;;;9.50;7.17;;;1.30;38.60;;;;;;10305004;28;20234;-70
2022/12/13 17:32:53;;;;;;;8.27;6.43;;;1.30;39.00;;;;;;10307119;28;20278;-70
2022/12/13 17:37:56;;;;;;;6.93;6.07;;;1.30;38.80;;;;;;10306284;28;20281;-70
2022/12/13 17:43:01;;;;;;;8.80;7.03;;;1.30;38.60;;;;;;10307631;28;20278;-67
2022/12/13 17:48:04;;;;;;;9.03;7.20;;;1.30;38.40;;;;;;10302980;28;20224;-68
2022/12/13 17:53:07;;;;;;;7.97;6.87;;;1.30;38.30;;;;;;10304919;28;20266;-68
2022/12/13 17:58:12;;;;;;;6.73;5.73;;;1.30;38.20;;;;;;10302015;28;20224;-68
2022/12/13 18:03:15;;;;;;;7.47;6.37;;;1.30;38.20;;;;;;10302324;28;20277;-68
2022/12/13 18:08:18;;;;;;;8.53;6.27;;;1.20;38.20;;;;;;10305637;28;20246;-68
2022/12/13 18:13:23;;;;;;;6.93;5.40;;;1.20;38.10;;;;;;10310557;28;20711;-68
2022/12/13 18:18:26;;;;;;;11.33;6.73;;;1.20;38.10;;;;;;10304792;28;20258;-68
2022/12/13 18:23:30;;;;;;;7.53;6.33;;;1.10;38.10;;;;;;10304668;28;20239;-68
2022/12/13 18:28:34;;;;;;;8.03;6.00;;;1.10;38.10;;;;;;10305245;28;20235;-68
2022/12/13 18:33:37;;;;;;;8.17;5.90;;;1.20;38.10;;;;;;10307789;28;20230;-71
2022/12/13 18:38:45;;;;;;;5.87;5.23;;;1.00;38.00;;;;;;10302566;28;20802;-71
2022/12/13 18:43:55;;;;;;;6.47;5.57;;;1.00;37.90;;;;;;10301731;28;20226;-70
2022/12/13 18:49:02;;;;;;;8.10;6.27;;;0.90;37.70;;;;;;10305403;28;20224;-70
2022/12/13 18:54:05;;;;;;;6.60;5.67;;;0.90;38.00;;;;;;10305470;28;20284;-70
2022/12/13 18:59:11;;;;;;;7.67;5.67;;;0.90;37.90;;;;;;10304140;28;20631;-70
2022/12/13 19:04:14;;;;;;;6.70;5.73;;;0.80;37.90;;;;;;10305822;28;20243;-70
2022/12/13 19:09:18;;;;;;;7.37;5.37;;;0.80;38.00;;;;;;10305101;28;20243;-69
2022/12/13 19:14:22;;;;;;;6.00;5.40;;;0.80;37.90;;;;;;10308090;28;20244;-70
2022/12/13 19:19:29;;;;;;;5.87;5.20;;;0.70;37.70;;;;;;10311253;28;20309;-68
2022/12/13 19:24:32;;;;;;;7.37;5.63;;;0.70;37.90;;;;;;10316613;28;20227;-68
2022/12/13 19:29:37;;;;;;;8.23;5.63;;;0.60;37.90;;;;;;10311096;28;20230;-70
2022/12/13 19:34:40;;;;;;;8.07;6.40;;;0.60;37.70;;;;;;10315952;28;20223;-71
2022/12/13 19:39:43;;;;;;;7.07;5.53;;;0.60;37.70;;;;;;10312558;28;20658;-69
2022/12/13 19:44:47;;;;;;;7.47;5.83;;;0.60;37.80;;;;;;10316487;28;20235;-70
2022/12/13 19:49:50;;;;;;;8.03;6.27;;;0.50;37.70;;;;;;10313959;28;20254;-69
2022/12/13 19:54:54;;;;;;;7.13;5.83;;;0.50;37.90;;;;;;10313991;28;20227;-69
2022/12/13 19:59:59;;;;;;;8.17;6.83;;;0.50;38.10;;;;;;10307016;28;20221;-68
2022/12/13 20:05:02;;;;;;;9.07;6.10;;;0.50;38.10;;;;;;10313858;28;20218;-70
2022/12/13 20:10:07;;;;;;;6.47;5.07;;;0.50;38.20;;;;;;10315502;28;20231;-69
2022/12/13 20:15:11;;;;;;;6.83;6.13;;;0.50;38.30;;;;;;10309100;28;20227;-68
2022/12/13 20:20:15;;;;;;;7.27;5.93;;;0.40;38.10;;;;;;10311993;28;20695;-69
2022/12/13 20:25:18;;;;;;;7.90;6.13;;;0.40;38.10;;;;;;10322181;28;20727;-68
2022/12/13 20:30:23;;;;;;;9.23;6.67;;;0.50;38.30;;;;;;10307537;28;22474;-71
2022/12/13 20:35:26;;;;;;;13.97;9.87;;;0.50;38.20;;;;;;10311331;28;20653;-71
2022/12/13 20:40:29;;;;;;;9.40;7.43;;;0.50;38.30;;;;;;10301384;28;20231;-71
2022/12/13 20:45:34;;;;;;;10.00;7.03;;;0.50;38.40;;;;;;10302746;28;20620;-68
2022/12/13 20:50:37;;;;;;;7.67;6.37;;;0.50;38.30;;;;;;10308515;28;20604;-68
2022/12/13 20:55:40;;;;;;;9.27;7.07;;;0.50;38.30;;;;;;10306583;28;20596;-71
2022/12/13 21:00:51;;;;;;;7.67;6.63;;;0.60;38.30;;;;;;10304894;28;20273;-72
2022/12/13 21:05:54;;;;;;;8.93;6.63;;;0.50;38.20;;;;;;10300646;28;20283;-71
2022/12/13 21:10:58;;;;;;;7.53;6.40;;;0.50;38.30;;;;;;10303480;28;20238;-71
2022/12/13 21:16:08;;;;;;;8.77;6.63;;;0.40;38.20;;;;;;10304662;28;20223;-71
2022/12/13 21:21:12;;;;;;;7.43;5.70;;;0.50;38.30;;;;;;10302510;28;20290;-71
2022/12/13 21:26:15;;;;;;;6.70;5.90;;;0.40;38.30;;;;;;10306422;28;20246;-71
2022/12/13 21:31:22;;;;;;;9.20;6.50;;;0.40;38.30;;;;;;10302345;28;20707;-71
2022/12/13 21:36:27;;;;;;;8.53;6.77;;;0.40;38.40;;;;;;10302662;28;20641;-71
2022/12/13 21:41:30;;;;;;;8.50;7.10;;;0.50;38.40;;;;;;10302120;28;21061;-71
2022/12/13 21:46:35;;;;;;;7.73;6.50;;;0.50;38.40;;;;;;10305925;28;20285;-71
2022/12/13 21:51:58;;;;;;;8.67;6.90;;;0.50;38.50;;;;;;10300966;28;20230;-71
2022/12/13 22:02:23;;;;;;;10.30;7.97;;;0.50;38.60;;;;;;10299526;28;20246;-71
2022/12/13 22:07:28;;;;;;;9.47;7.70;;;0.50;38.60;;;;;;10303459;28;20281;-71
2022/12/13 22:12:34;;;;;;;9.30;7.73;;;0.50;38.70;;;;;;10301589;28;20669;-71
2022/12/13 22:17:39;;;;;;;10.40;7.90;;;0.50;38.90;;;;;;10305488;28;20231;-71
2022/12/13 22:22:44;;;;;;;8.63;7.10;;;0.50;39.00;;;;;;10303534;28;20230;-71
2022/12/13 22:27:47;;;;;;;14.07;9.93;;;0.50;39.00;;;;;;10302698;28;20270;-71
2022/12/13 22:32:52;;;;;;;11.27;8.17;;;0.50;39.00;;;;;;10300592;28;20234;-71
2022/12/13 22:37:55;;;;;;;10.10;8.13;;;0.50;39.00;;;;;;10302519;28;20234;-71
2022/12/13 22:43:03;;;;;;;9.03;7.73;;;0.50;39.00;;;;;;10307775;28;20223;-71
2022/12/13 22:48:08;;;;;;;9.80;8.20;;;0.50;39.00;;;;;;10305472;28;20220;-71
2022/12/13 22:53:11;;;;;;;8.00;7.20;;;0.60;39.10;;;;;;10303210;28;20372;-71
2022/12/13 22:58:14;;;;;;;8.63;7.70;;;0.40;39.00;;;;;;10301716;28;20255;-71
2022/12/13 23:03:18;;;;;;;10.63;8.43;;;0.50;39.00;;;;;;10306617;28;20227;-71
2022/12/13 23:08:22;;;;;;;9.47;8.23;;;0.40;39.00;;;;;;10303995;28;20239;-71
2022/12/13 23:13:25;;;;;;;8.50;7.23;;;0.40;39.00;;;;;;10303663;28;20243;-71
2022/12/13 23:18:29;;;;;;;10.70;7.73;;;0.40;39.00;;;;;;10298153;28;20237;-71
2022/12/13 23:23:33;;;;;;;10.87;8.10;;;0.30;38.90;;;;;;10302984;28;20689;-71
2022/12/13 23:28:36;;;;;;;9.93;7.33;;;0.40;39.00;;;;;;10304553;28;20703;-71
2022/12/13 23:33:41;;;;;;;8.77;7.53;;;0.40;39.00;;;;;;10300150;28;20230;-71
2022/12/13 23:38:45;;;;;;;8.53;7.10;;;0.40;39.00;;;;;;10308054;28;20274;-70
2022/12/13 23:43:49;;;;;;;8.53;7.23;;;0.40;39.00;;;;;;10301291;28;20230;-71
2022/12/13 23:48:53;;;;;;;8.43;7.60;;;0.50;39.00;;;;;;10298197;28;20629;-71
2022/12/13 23:53:56;;;;;;;9.97;7.20;;;0.50;39.00;;;;;;10301084;28;20611;-71
2022/12/13 23:58:59;;;;;;;8.57;7.30;;;0.50;39.00;;;;;;10302992;28;20239;-71
